sensor_id;sensor_type;location;lat;lon;timestamp;pressure;altitude;pressure_sealevel;temperature;humidity
20105;BME280;10212;42.714;23.310;2022-11-20T00:00:35;94484.75;;;14.26;79.60
20105;BME280;10212;42.714;23.310;2022-11-20T00:05:37;94484.59;;;14.33;80.26
20105;BME280;10212;42.714;23.310;2022-11-20T00:10:43;94476.09;;;14.26;79.87
20105;BME280;10212;42.714;23.310;2022-11-20T00:15:43;94478.56;;;14.32;79.11
20105;BME280;10212;42.714;23.310;2022-11-20T00:20:46;94462.22;;;14.87;74.12
20105;BME280;10212;42.714;23.310;2022-11-20T00:25:46;94462.66;;;15.34;72.23
20105;BME280;10212;42.714;23.310;2022-11-20T00:30:49;94465.44;;;15.50;70.10
20105;BME280;10212;42.714;23.310;2022-11-20T00:35:51;94462.13;;;15.60;70.59
20105;BME280;10212;42.714;23.310;2022-11-20T00:40:59;94441.44;;;15.69;69.17
20105;BME280;10212;42.714;23.310;2022-11-20T00:46:01;94463.63;;;15.88;68.12
20105;BME280;10212;42.714;23.310;2022-11-20T00:51:04;94450.03;;;15.97;67.11
20105;BME280;10212;42.714;23.310;2022-11-20T00:56:10;94418.09;;;16.15;66.28
20105;BME280;10212;42.714;23.310;2022-11-20T01:01:14;94450.91;;;16.56;63.28
20105;BME280;10212;42.714;23.310;2022-11-20T01:11:38;94432.09;;;16.91;62.58
20105;BME280;10212;42.714;23.310;2022-11-20T01:16:42;94409.19;;;17.02;61.95
20105;BME280;10212;42.714;23.310;2022-11-20T01:21:45;94420.56;;;17.13;61.83
20105;BME280;10212;42.714;23.310;2022-11-20T01:26:49;94427.16;;;17.10;61.15
20105;BME280;10212;42.714;23.310;2022-11-20T01:31:51;94414.25;;;17.08;60.91
20105;BME280;10212;42.714;23.310;2022-11-20T01:36:54;94405.84;;;17.27;60.25
20105;BME280;10212;42.714;23.310;2022-11-20T01:41:55;94398.47;;;17.34;59.35
20105;BME280;10212;42.714;23.310;2022-11-20T01:47:23;94399.03;;;17.37;59.26
20105;BME280;10212;42.714;23.310;2022-11-20T01:52:45;94401.91;;;17.35;59.62
20105;BME280;10212;42.714;23.310;2022-11-20T01:57:49;94412.19;;;17.21;60.20
20105;BME280;10212;42.714;23.310;2022-11-20T02:02:53;94407.69;;;17.37;59.15
20105;BME280;10212;42.714;23.310;2022-11-20T02:07:58;94406.91;;;17.37;58.94
20105;BME280;10212;42.714;23.310;2022-11-20T02:13:01;94400.06;;;17.35;57.96
20105;BME280;10212;42.714;23.310;2022-11-20T02:18:22;94408.75;;;17.20;59.64
20105;BME280;10212;42.714;23.310;2022-11-20T02:23:38;94403.16;;;17.06;60.04
20105;BME280;10212;42.714;23.310;2022-11-20T02:28:41;94408.97;;;17.08;60.15
20105;BME280;10212;42.714;23.310;2022-11-20T02:33:42;94419.81;;;17.22;60.05
20105;BME280;10212;42.714;23.310;2022-11-20T02:38:44;94404.28;;;17.21;59.15
20105;BME280;10212;42.714;23.310;2022-11-20T02:43:47;94424.56;;;17.26;60.04
20105;BME280;10212;42.714;23.310;2022-11-20T02:48:50;94445.38;;;17.32;58.79
20105;BME280;10212;42.714;23.310;2022-11-20T02:53:52;94432.22;;;17.38;60.05
20105;BME280;10212;42.714;23.310;2022-11-20T02:58:53;94445.38;;;17.43;60.37
20105;BME280;10212;42.714;23.310;2022-11-20T03:03:55;94462.75;;;17.33;61.22
20105;BME280;10212;42.714;23.310;2022-11-20T03:08:56;94454.84;;;17.23;62.44
20105;BME280;10212;42.714;23.310;2022-11-20T03:14:02;94479.34;;;17.18;62.11
20105;BME280;10212;42.714;23.310;2022-11-20T03:19:04;94477.25;;;17.20;62.33
20105;BME280;10212;42.714;23.310;2022-11-20T03:24:05;94475.63;;;17.14;63.49
20105;BME280;10212;42.714;23.310;2022-11-20T03:29:07;94482.91;;;16.96;64.22
20105;BME280;10212;42.714;23.310;2022-11-20T03:34:09;94491.03;;;16.84;64.89
20105;BME280;10212;42.714;23.310;2022-11-20T03:39:10;94493.44;;;16.91;63.79
20105;BME280;10212;42.714;23.310;2022-11-20T03:44:11;94504.25;;;16.95;63.50
20105;BME280;10212;42.714;23.310;2022-11-20T03:49:12;94502.41;;;16.95;63.55
20105;BME280;10212;42.714;23.310;2022-11-20T03:54:12;94497.41;;;16.94;63.23
20105;BME280;10212;42.714;23.310;2022-11-20T03:59:13;94488.44;;;16.95;63.16
20105;BME280;10212;42.714;23.310;2022-11-20T04:04:13;94497.94;;;16.91;63.60
20105;BME280;10212;42.714;23.310;2022-11-20T04:09:14;94497.13;;;16.90;64.08
20105;BME280;10212;42.714;23.310;2022-11-20T04:14:16;94512.09;;;16.79;64.86
20105;BME280;10212;42.714;23.310;2022-11-20T04:19:17;94490.41;;;16.61;66.22
20105;BME280;10212;42.714;23.310;2022-11-20T04:24:17;94475.72;;;16.66;63.45
20105;BME280;10212;42.714;23.310;2022-11-20T04:29:18;94480.97;;;16.66;63.32
20105;BME280;10212;42.714;23.310;2022-11-20T04:34:18;94491.88;;;16.90;61.74
20105;BME280;10212;42.714;23.310;2022-11-20T04:39:19;94520.53;;;16.81;63.51
20105;BME280;10212;42.714;23.310;2022-11-20T04:44:19;94482.31;;;16.73;62.08
20105;BME280;10212;42.714;23.310;2022-11-20T04:49:20;94467.91;;;16.92;61.00
20105;BME280;10212;42.714;23.310;2022-11-20T04:54:20;94471.34;;;16.92;61.51
20105;BME280;10212;42.714;23.310;2022-11-20T04:59:21;94475.25;;;16.90;62.06
20105;BME280;10212;42.714;23.310;2022-11-20T05:04:22;94463.09;;;16.73;63.60
20105;BME280;10212;42.714;23.310;2022-11-20T05:09:22;94458.56;;;16.63;63.44
20105;BME280;10212;42.714;23.310;2022-11-20T05:14:23;94447.78;;;16.59;63.56
20105;BME280;10212;42.714;23.310;2022-11-20T05:19:23;94452.72;;;16.50;64.04
20105;BME280;10212;42.714;23.310;2022-11-20T05:24:24;94458.75;;;16.46;63.93
20105;BME280;10212;42.714;23.310;2022-11-20T05:29:24;94447.19;;;16.47;64.16
20105;BME280;10212;42.714;23.310;2022-11-20T05:34:25;94457.19;;;16.45;64.05
20105;BME280;10212;42.714;23.310;2022-11-20T05:39:25;94456.13;;;16.41;64.07
20105;BME280;10212;42.714;23.310;2022-11-20T05:44:26;94461.88;;;16.32;65.67
20105;BME280;10212;42.714;23.310;2022-11-20T05:49:27;94452.34;;;16.26;67.61
20105;BME280;10212;42.714;23.310;2022-11-20T05:54:27;94463.84;;;16.09;70.13
20105;BME280;10212;42.714;23.310;2022-11-20T05:59:27;94454.31;;;16.03;70.92
20105;BME280;10212;42.714;23.310;2022-11-20T06:04:28;94458.63;;;15.87;71.11
20105;BME280;10212;42.714;23.310;2022-11-20T06:09:28;94478.91;;;15.86;71.15
20105;BME280;10212;42.714;23.310;2022-11-20T06:14:29;94469.72;;;15.94;70.98
20105;BME280;10212;42.714;23.310;2022-11-20T06:19:30;94461.66;;;16.01;70.46
20105;BME280;10212;42.714;23.310;2022-11-20T06:24:30;94461.44;;;16.02;69.60
20105;BME280;10212;42.714;23.310;2022-11-20T06:29:30;94463.03;;;16.09;68.99
20105;BME280;10212;42.714;23.310;2022-11-20T06:34:31;94475.41;;;16.13;69.15
20105;BME280;10212;42.714;23.310;2022-11-20T06:39:41;94465.50;;;16.26;67.99
20105;BME280;10212;42.714;23.310;2022-11-20T06:44:41;94491.25;;;16.24;68.90
20105;BME280;10212;42.714;23.310;2022-11-20T06:49:42;94498.91;;;16.25;68.78
20105;BME280;10212;42.714;23.310;2022-11-20T06:55:01;94496.53;;;16.29;69.69
20105;BME280;10212;42.714;23.310;2022-11-20T07:00:02;94496.06;;;16.32;68.56
20105;BME280;10212;42.714;23.310;2022-11-20T07:05:03;94486.91;;;16.45;68.05
20105;BME280;10212;42.714;23.310;2022-11-20T07:10:04;94514.50;;;16.37;68.36
20105;BME280;10212;42.714;23.310;2022-11-20T07:15:05;94525.00;;;16.32;68.11
20105;BME280;10212;42.714;23.310;2022-11-20T07:20:06;94530.84;;;16.39;67.62
20105;BME280;10212;42.714;23.310;2022-11-20T07:25:07;94517.94;;;16.43;67.26
20105;BME280;10212;42.714;23.310;2022-11-20T07:30:09;94516.41;;;16.47;67.24
20105;BME280;10212;42.714;23.310;2022-11-20T07:35:09;94533.00;;;16.48;66.87
20105;BME280;10212;42.714;23.310;2022-11-20T07:40:11;94538.25;;;16.48;66.46
20105;BME280;10212;42.714;23.310;2022-11-20T07:45:12;94536.84;;;16.35;66.60
20105;BME280;10212;42.714;23.310;2022-11-20T07:50:13;94530.03;;;16.39;66.31
20105;BME280;10212;42.714;23.310;2022-11-20T07:55:14;94522.13;;;16.34;66.32
20105;BME280;10212;42.714;23.310;2022-11-20T08:00:15;94532.06;;;16.26;67.96
20105;BME280;10212;42.714;23.310;2022-11-20T08:05:15;94524.94;;;16.22;67.78
20105;BME280;10212;42.714;23.310;2022-11-20T08:10:16;94544.38;;;16.21;68.45
20105;BME280;10212;42.714;23.310;2022-11-20T08:15:17;94516.03;;;16.28;66.69
20105;BME280;10212;42.714;23.310;2022-11-20T08:20:17;94519.38;;;16.18;67.74
20105;BME280;10212;42.714;23.310;2022-11-20T08:25:18;94520.22;;;16.29;70.09
20105;BME280;10212;42.714;23.310;2022-11-20T08:30:18;94525.44;;;16.24;69.62
20105;BME280;10212;42.714;23.310;2022-11-20T08:35:20;94544.88;;;16.18;70.58
20105;BME280;10212;42.714;23.310;2022-11-20T08:40:20;94543.31;;;16.17;70.55
20105;BME280;10212;42.714;23.310;2022-11-20T08:45:21;94548.84;;;16.20;67.97
20105;BME280;10212;42.714;23.310;2022-11-20T08:50:22;94583.56;;;16.22;70.71
20105;BME280;10212;42.714;23.310;2022-11-20T08:55:24;94574.16;;;15.43;75.78
20105;BME280;10212;42.714;23.310;2022-11-20T09:00:24;94577.38;;;14.66;85.75
20105;BME280;10212;42.714;23.310;2022-11-20T09:05:25;94578.44;;;14.48;88.96
20105;BME280;10212;42.714;23.310;2022-11-20T09:10:26;94588.28;;;14.58;90.04
20105;BME280;10212;42.714;23.310;2022-11-20T09:15:27;94586.06;;;14.50;91.72
20105;BME280;10212;42.714;23.310;2022-11-20T09:20:28;94601.25;;;14.30;93.69
20105;BME280;10212;42.714;23.310;2022-11-20T09:25:30;94586.84;;;13.98;96.26
20105;BME280;10212;42.714;23.310;2022-11-20T09:30:30;94590.34;;;13.58;98.01
20105;BME280;10212;42.714;23.310;2022-11-20T09:35:31;94581.00;;;13.21;96.88
20105;BME280;10212;42.714;23.310;2022-11-20T09:40:32;94562.28;;;13.29;100.00
20105;BME280;10212;42.714;23.310;2022-11-20T09:56:16;94542.50;;;13.50;100.00
20105;BME280;10212;42.714;23.310;2022-11-20T10:01:19;94549.53;;;13.62;100.00
20105;BME280;10212;42.714;23.310;2022-11-20T10:06:41;94526.66;;;13.86;100.00
20105;BME280;10212;42.714;23.310;2022-11-20T10:33:15;94517.34;;;13.96;97.45
20105;BME280;10212;42.714;23.310;2022-11-20T10:43:36;94523.38;;;13.96;96.30
20105;BME280;10212;42.714;23.310;2022-11-20T10:48:38;94536.34;;;13.86;97.32
20105;BME280;10212;42.714;23.310;2022-11-20T11:03:58;94541.50;;;13.81;97.37
20105;BME280;10212;42.714;23.310;2022-11-20T11:09:02;94594.75;;;13.16;97.70
20105;BME280;10212;42.714;23.310;2022-11-20T11:14:05;94593.00;;;11.90;97.62
20105;BME280;10212;42.714;23.310;2022-11-20T11:19:12;94571.00;;;11.36;100.00
20105;BME280;10212;42.714;23.310;2022-11-20T11:24:27;94562.69;;;11.27;100.00
20105;BME280;10212;42.714;23.310;2022-11-20T11:29:28;94544.81;;;11.12;100.00
20105;BME280;10212;42.714;23.310;2022-11-20T11:34:31;94540.75;;;10.97;100.00
20105;BME280;10212;42.714;23.310;2022-11-20T11:39:33;94536.34;;;10.98;100.00
20105;BME280;10212;42.714;23.310;2022-11-20T11:44:34;94554.84;;;10.96;100.00
20105;BME280;10212;42.714;23.310;2022-11-20T11:50:15;94557.22;;;10.98;100.00
20105;BME280;10212;42.714;23.310;2022-11-20T11:55:37;94551.69;;;11.06;100.00
20105;BME280;10212;42.714;23.310;2022-11-20T12:00:41;94546.72;;;11.05;100.00
20105;BME280;10212;42.714;23.310;2022-11-20T12:05:49;94570.56;;;11.08;100.00
20105;BME280;10212;42.714;23.310;2022-11-20T12:11:14;94561.97;;;11.20;100.00
20105;BME280;10212;42.714;23.310;2022-11-20T12:16:19;94553.56;;;11.18;100.00
20105;BME280;10212;42.714;23.310;2022-11-20T12:43:56;94499.53;;;11.06;100.00
20105;BME280;10212;42.714;23.310;2022-11-20T12:48:46;94511.19;;;11.04;100.00
20105;BME280;10212;42.714;23.310;2022-11-20T13:04:19;94534.31;;;10.81;100.00
20105;BME280;10212;42.714;23.310;2022-11-20T13:09:24;94505.91;;;10.92;100.00
20105;BME280;10212;42.714;23.310;2022-11-20T13:14:34;94500.59;;;10.98;100.00
20105;BME280;10212;42.714;23.310;2022-11-20T13:19:38;94530.13;;;10.99;100.00
20105;BME280;10212;42.714;23.310;2022-11-20T13:24:39;94533.66;;;11.05;100.00
20105;BME280;10212;42.714;23.310;2022-11-20T13:29:45;94513.50;;;11.12;100.00
20105;BME280;10212;42.714;23.310;2022-11-20T13:34:56;94498.25;;;11.28;100.00
20105;BME280;10212;42.714;23.310;2022-11-20T13:45:27;94504.59;;;11.63;100.00
20105;BME280;10212;42.714;23.310;2022-11-20T13:51:00;94506.97;;;11.76;100.00
20105;BME280;10212;42.714;23.310;2022-11-20T14:01:23;94520.50;;;11.85;100.00
20105;BME280;10212;42.714;23.310;2022-11-20T14:06:30;94529.16;;;11.86;100.00
20105;BME280;10212;42.714;23.310;2022-11-20T14:11:31;94525.53;;;11.87;100.00
20105;BME280;10212;42.714;23.310;2022-11-20T14:16:35;94518.13;;;11.84;100.00
20105;BME280;10212;42.714;23.310;2022-11-20T14:21:36;94525.84;;;11.78;100.00
20105;BME280;10212;42.714;23.310;2022-11-20T14:26:41;94502.91;;;11.80;99.99
20105;BME280;10212;42.714;23.310;2022-11-20T14:31:42;94519.63;;;11.79;99.90
20105;BME280;10212;42.714;23.310;2022-11-20T14:36:44;94531.53;;;11.75;97.51
20105;BME280;10212;42.714;23.310;2022-11-20T14:41:53;94521.31;;;11.74;97.22
20105;BME280;10212;42.714;23.310;2022-11-20T14:46:54;94515.59;;;11.65;96.44
20105;BME280;10212;42.714;23.310;2022-11-20T14:52:00;94512.28;;;11.57;94.24
20105;BME280;10212;42.714;23.310;2022-11-20T14:57:02;94520.56;;;11.54;94.30
20105;BME280;10212;42.714;23.310;2022-11-20T15:02:07;94518.97;;;11.53;94.74
20105;BME280;10212;42.714;23.310;2022-11-20T15:07:09;94536.34;;;11.48;94.10
20105;BME280;10212;42.714;23.310;2022-11-20T15:12:17;94540.19;;;11.45;94.34
20105;BME280;10212;42.714;23.310;2022-11-20T15:17:17;94558.00;;;11.48;94.69
20105;BME280;10212;42.714;23.310;2022-11-20T15:22:18;94581.63;;;11.53;95.71
20105;BME280;10212;42.714;23.310;2022-11-20T15:27:19;94574.81;;;11.52;93.51
20105;BME280;10212;42.714;23.310;2022-11-20T15:32:20;94596.94;;;11.50;95.08
20105;BME280;10212;42.714;23.310;2022-11-20T15:37:20;94618.72;;;11.43;94.20
20105;BME280;10212;42.714;23.310;2022-11-20T15:42:21;94645.91;;;11.17;96.52
20105;BME280;10212;42.714;23.310;2022-11-20T15:47:27;94684.78;;;10.23;100.00
20105;BME280;10212;42.714;23.310;2022-11-20T15:52:28;94686.25;;;9.73;100.00
20105;BME280;10212;42.714;23.310;2022-11-20T15:57:29;94674.31;;;9.58;100.00
20105;BME280;10212;42.714;23.310;2022-11-20T16:02:30;94702.56;;;9.55;100.00
20105;BME280;10212;42.714;23.310;2022-11-20T16:07:30;94722.75;;;9.59;100.00
20105;BME280;10212;42.714;23.310;2022-11-20T16:12:31;94677.69;;;9.65;100.00
20105;BME280;10212;42.714;23.310;2022-11-20T16:17:51;94685.50;;;9.59;100.00
20105;BME280;10212;42.714;23.310;2022-11-20T16:22:53;94663.31;;;9.56;100.00
20105;BME280;10212;42.714;23.310;2022-11-20T16:27:53;94655.09;;;9.52;100.00
20105;BME280;10212;42.714;23.310;2022-11-20T16:32:54;94646.91;;;9.49;100.00
20105;BME280;10212;42.714;23.310;2022-11-20T16:37:55;94654.31;;;9.45;100.00
20105;BME280;10212;42.714;23.310;2022-11-20T16:42:56;94637.91;;;9.45;100.00
20105;BME280;10212;42.714;23.310;2022-11-20T16:47:57;94635.91;;;9.47;100.00
20105;BME280;10212;42.714;23.310;2022-11-20T16:52:58;94624.69;;;9.53;100.00
20105;BME280;10212;42.714;23.310;2022-11-20T16:57:58;94625.50;;;9.47;100.00
20105;BME280;10212;42.714;23.310;2022-11-20T17:02:59;94632.50;;;9.53;100.00
20105;BME280;10212;42.714;23.310;2022-11-20T17:08:00;94627.06;;;9.55;100.00
20105;BME280;10212;42.714;23.310;2022-11-20T17:13:01;94607.41;;;9.59;100.00
20105;BME280;10212;42.714;23.310;2022-11-20T17:18:03;94600.41;;;9.59;100.00
20105;BME280;10212;42.714;23.310;2022-11-20T17:23:06;94603.41;;;9.63;100.00
20105;BME280;10212;42.714;23.310;2022-11-20T17:28:08;94604.19;;;9.63;100.00
20105;BME280;10212;42.714;23.310;2022-11-20T17:33:09;94581.75;;;9.69;100.00
20105;BME280;10212;42.714;23.310;2022-11-20T17:38:10;94580.78;;;9.63;100.00
20105;BME280;10212;42.714;23.310;2022-11-20T17:43:11;94566.56;;;9.59;100.00
20105;BME280;10212;42.714;23.310;2022-11-20T17:48:11;94546.06;;;9.70;100.00
20105;BME280;10212;42.714;23.310;2022-11-20T17:53:12;94565.06;;;9.77;100.00
20105;BME280;10212;42.714;23.310;2022-11-20T17:58:13;94532.63;;;9.80;100.00
20105;BME280;10212;42.714;23.310;2022-11-20T18:03:14;94499.59;;;9.73;100.00
20105;BME280;10212;42.714;23.310;2022-11-20T18:08:16;94480.09;;;9.57;100.00
20105;BME280;10212;42.714;23.310;2022-11-20T18:13:16;94502.56;;;9.51;100.00
20105;BME280;10212;42.714;23.310;2022-11-20T18:18:19;94498.72;;;9.54;100.00
20105;BME280;10212;42.714;23.310;2022-11-20T18:23:20;94486.09;;;9.58;100.00
20105;BME280;10212;42.714;23.310;2022-11-20T18:28:20;94484.88;;;9.60;100.00
20105;BME280;10212;42.714;23.310;2022-11-20T18:33:23;94484.84;;;9.67;100.00
20105;BME280;10212;42.714;23.310;2022-11-20T18:38:24;94479.56;;;9.74;100.00
20105;BME280;10212;42.714;23.310;2022-11-20T18:43:25;94465.81;;;9.67;100.00
20105;BME280;10212;42.714;23.310;2022-11-20T18:48:45;94472.88;;;9.59;100.00
20105;BME280;10212;42.714;23.310;2022-11-20T18:53:45;94450.41;;;9.65;100.00
20105;BME280;10212;42.714;23.310;2022-11-20T18:58:46;94464.63;;;9.62;100.00
20105;BME280;10212;42.714;23.310;2022-11-20T19:03:46;94477.31;;;9.52;100.00
20105;BME280;10212;42.714;23.310;2022-11-20T19:08:47;94451.28;;;9.52;100.00
20105;BME280;10212;42.714;23.310;2022-11-20T19:13:49;94457.56;;;9.44;100.00
20105;BME280;10212;42.714;23.310;2022-11-20T19:18:50;94463.81;;;9.36;100.00
20105;BME280;10212;42.714;23.310;2022-11-20T19:23:53;94449.81;;;9.37;100.00
20105;BME280;10212;42.714;23.310;2022-11-20T19:28:54;94413.00;;;9.34;100.00
20105;BME280;10212;42.714;23.310;2022-11-20T19:33:56;94440.28;;;9.24;100.00
20105;BME280;10212;42.714;23.310;2022-11-20T19:38:58;94441.09;;;9.25;100.00
20105;BME280;10212;42.714;23.310;2022-11-20T19:44:04;94425.47;;;9.25;100.00
20105;BME280;10212;42.714;23.310;2022-11-20T19:49:09;94393.50;;;9.18;100.00
20105;BME280;10212;42.714;23.310;2022-11-20T19:54:10;94391.50;;;9.20;100.00
20105;BME280;10212;42.714;23.310;2022-11-20T19:59:12;94400.13;;;9.13;100.00
20105;BME280;10212;42.714;23.310;2022-11-20T20:04:14;94394.66;;;9.22;100.00
20105;BME280;10212;42.714;23.310;2022-11-20T20:09:15;94373.03;;;9.28;100.00
20105;BME280;10212;42.714;23.310;2022-11-20T20:14:16;94353.19;;;9.27;100.00
20105;BME280;10212;42.714;23.310;2022-11-20T20:19:17;94375.84;;;9.26;100.00
20105;BME280;10212;42.714;23.310;2022-11-20T20:24:18;94372.59;;;9.31;100.00
20105;BME280;10212;42.714;23.310;2022-11-20T20:29:18;94357.16;;;9.11;100.00
20105;BME280;10212;42.714;23.310;2022-11-20T20:34:22;94376.13;;;9.11;100.00
20105;BME280;10212;42.714;23.310;2022-11-20T20:39:23;94369.03;;;9.00;100.00
20105;BME280;10212;42.714;23.310;2022-11-20T20:44:23;94358.19;;;9.03;100.00
20105;BME280;10212;42.714;23.310;2022-11-20T20:49:43;94369.94;;;9.12;100.00
20105;BME280;10212;42.714;23.310;2022-11-20T20:54:44;94372.78;;;9.04;100.00
20105;BME280;10212;42.714;23.310;2022-11-20T20:59:44;94346.38;;;9.00;100.00
20105;BME280;10212;42.714;23.310;2022-11-20T21:04:45;94346.78;;;9.04;100.00
20105;BME280;10212;42.714;23.310;2022-11-20T21:09:45;94338.59;;;9.00;100.00
20105;BME280;10212;42.714;23.310;2022-11-20T21:14:46;94328.66;;;8.90;100.00
20105;BME280;10212;42.714;23.310;2022-11-20T21:19:46;94285.50;;;8.89;100.00
20105;BME280;10212;42.714;23.310;2022-11-20T21:24:47;94294.34;;;8.82;100.00
20105;BME280;10212;42.714;23.310;2022-11-20T21:29:47;94303.16;;;8.80;100.00
20105;BME280;10212;42.714;23.310;2022-11-20T21:34:47;94305.31;;;8.84;100.00
20105;BME280;10212;42.714;23.310;2022-11-20T23:51:18;93947.72;;;9.19;100.00
20105;BME280;10212;42.714;23.310;2022-11-20T23:56:19;93911.84;;;9.09;100.00
